createdAt,value
2019-05-18T00:01:21.505Z,15.32
2019-05-18T00:03:50.362Z,15.08
2019-05-18T00:06:19.235Z,13.40
2019-05-18T00:08:47.986Z,16.07
2019-05-18T00:11:16.909Z,15.98
2019-05-18T00:13:45.732Z,15.85
2019-05-18T00:16:14.718Z,16.10
2019-05-18T00:18:43.530Z,16.42
2019-05-18T00:21:12.392Z,15.68
2019-05-18T00:23:41.155Z,16.97
2019-05-18T00:26:09.971Z,16.23
2019-05-18T00:28:39.143Z,18.40
2019-05-18T00:31:08.012Z,15.10
2019-05-18T00:33:36.880Z,17.45
2019-05-18T00:36:05.709Z,17.12
2019-05-18T00:38:34.480Z,15.75
2019-05-18T00:41:03.270Z,17.90
2019-05-18T00:43:32.054Z,15.90
2019-05-18T00:46:00.959Z,18.55
2019-05-18T00:48:29.827Z,16.47
2019-05-18T00:50:58.595Z,15.53
2019-05-18T00:53:27.454Z,15.68
2019-05-18T00:55:56.263Z,14.85
2019-05-18T00:58:25.398Z,15.53
2019-05-18T01:00:54.328Z,14.98
2019-05-18T01:03:23.143Z,14.85
2019-05-18T01:05:51.939Z,15.60
2019-05-18T01:08:20.799Z,16.20
2019-05-18T01:10:49.595Z,14.80
2019-05-18T01:13:18.461Z,17.23
2019-05-18T01:15:47.245Z,16.57
2019-05-18T01:18:16.051Z,17.45
2019-05-18T01:20:45.862Z,17.82
2019-05-18T01:23:14.779Z,17.35
2019-05-18T01:25:43.560Z,17.52
2019-05-18T01:28:12.464Z,17.10
2019-05-18T01:30:41.266Z,17.17
2019-05-18T01:33:10.095Z,15.23
2019-05-18T01:35:38.977Z,16.80
2019-05-18T01:38:07.830Z,16.30
2019-05-18T01:40:36.706Z,16.50
2019-05-18T01:43:05.608Z,16.35
2019-05-18T01:45:34.527Z,16.20
2019-05-18T01:48:13.325Z,14.70
2019-05-18T01:50:34.129Z,15.97
2019-05-18T01:53:02.984Z,16.17
2019-05-18T01:55:31.794Z,15.77
2019-05-18T01:58:00.562Z,16.67
2019-05-18T02:00:29.351Z,18.37
2019-05-18T02:02:58.211Z,17.20
2019-05-18T02:05:27.011Z,16.20
2019-05-18T02:07:55.770Z,17.02
2019-05-18T02:10:24.582Z,15.88
2019-05-18T02:12:53.427Z,15.95
2019-05-18T02:15:22.273Z,14.85
2019-05-18T02:17:51.379Z,16.95
2019-05-18T02:20:20.298Z,18.02
2019-05-18T02:22:49.096Z,16.30
2019-05-18T02:25:18.046Z,15.50
2019-05-18T02:27:46.819Z,15.95
2019-05-18T02:30:17.752Z,18.60
2019-05-18T02:32:46.823Z,14.87
2019-05-18T02:35:15.747Z,16.23
2019-05-18T02:37:45.604Z,15.38
2019-05-18T02:40:14.661Z,14.80
2019-05-18T02:42:43.516Z,15.70
2019-05-18T02:45:12.374Z,16.75
2019-05-18T02:47:41.319Z,16.05
2019-05-18T02:50:11.644Z,16.20
2019-05-18T02:52:40.452Z,14.73
2019-05-18T02:55:09.399Z,16.67
2019-05-18T02:57:38.285Z,16.93
2019-05-18T03:00:08.111Z,15.60
2019-05-18T03:02:37.607Z,15.43
2019-05-18T03:05:07.555Z,15.70
2019-05-18T03:07:36.403Z,16.35
2019-05-18T03:10:05.344Z,15.03
2019-05-18T03:12:34.282Z,16.00
2019-05-18T03:15:03.402Z,17.32
2019-05-18T03:17:32.490Z,17.73
2019-05-18T03:20:01.671Z,16.15
2019-05-18T03:22:30.447Z,16.30
2019-05-18T03:24:59.327Z,15.80
2019-05-18T03:27:28.103Z,15.78
2019-05-18T03:29:56.876Z,15.80
2019-05-18T03:32:25.740Z,15.83
2019-05-18T03:34:54.631Z,15.33
2019-05-18T03:37:23.459Z,15.45
2019-05-18T03:39:52.327Z,16.90
2019-05-18T03:42:21.102Z,14.98
2019-05-18T03:44:49.880Z,15.37
2019-05-18T03:47:19.559Z,15.03
2019-05-18T03:49:48.335Z,15.83
2019-05-18T03:52:17.646Z,15.05
2019-05-18T03:54:46.451Z,15.60
2019-05-18T03:57:15.292Z,15.45
2019-05-18T03:59:44.072Z,15.35
2019-05-18T04:02:12.869Z,15.18
2019-05-18T04:04:42.482Z,14.90
2019-05-18T04:07:11.395Z,14.83
2019-05-18T04:09:40.833Z,14.45
2019-05-18T04:12:09.713Z,14.70
2019-05-18T04:14:38.572Z,14.15
2019-05-18T04:17:07.395Z,15.30
2019-05-18T04:19:46.387Z,12.80
2019-05-18T04:22:06.833Z,13.08
2019-05-18T04:24:35.604Z,12.55
2019-05-18T04:27:04.538Z,11.78
2019-05-18T04:29:33.303Z,15.32
2019-05-18T04:32:02.211Z,11.83
2019-05-18T04:34:30.967Z,12.53
2019-05-18T04:37:00.342Z,11.78
2019-05-18T04:39:29.124Z,11.08
2019-05-18T04:41:57.908Z,10.68
2019-05-18T04:44:26.672Z,10.70
2019-05-18T04:46:55.571Z,11.80
2019-05-18T04:49:25.985Z,11.57
2019-05-18T04:51:54.821Z,10.88
2019-05-18T04:54:24.027Z,10.30
2019-05-18T04:56:52.798Z,9.65
2019-05-18T04:59:21.593Z,10.60
2019-05-18T05:01:50.966Z,11.45
2019-05-18T05:04:19.975Z,13.28
2019-05-18T05:06:48.750Z,10.33
2019-05-18T05:09:17.681Z,12.05
2019-05-18T05:11:46.538Z,11.70
2019-05-18T05:14:16.459Z,11.43
2019-05-18T05:16:45.344Z,12.73
2019-05-18T05:19:14.349Z,12.82
2019-05-18T05:21:43.111Z,12.37
2019-05-18T05:24:11.894Z,11.40
2019-05-18T05:26:40.692Z,10.72
2019-05-18T05:29:09.470Z,9.93
2019-05-18T05:31:38.311Z,10.78
2019-05-18T05:34:07.438Z,11.22
2019-05-18T05:36:36.232Z,10.80
2019-05-18T05:39:06.798Z,11.17
2019-05-18T05:41:35.634Z,9.25
2019-05-18T05:44:04.647Z,10.30
2019-05-18T05:46:33.411Z,9.95
2019-05-18T05:49:02.255Z,10.50
2019-05-18T05:51:31.177Z,10.38
2019-05-18T05:54:00.051Z,10.65
2019-05-18T05:56:29.173Z,10.25
2019-05-18T05:58:58.019Z,10.72
2019-05-18T06:01:26.803Z,10.00
2019-05-18T06:03:55.590Z,9.88
2019-05-18T06:06:24.358Z,10.32
2019-05-18T06:08:53.196Z,11.37
2019-05-18T06:11:21.983Z,9.35
2019-05-18T06:13:50.751Z,9.08
2019-05-18T06:16:19.972Z,10.72
2019-05-18T06:18:48.826Z,9.73
2019-05-18T06:21:17.762Z,9.58
2019-05-18T06:23:46.526Z,9.68
2019-05-18T06:26:15.302Z,10.63
2019-05-18T06:28:44.179Z,9.50
2019-05-18T06:31:12.954Z,12.63
2019-05-18T06:33:41.842Z,9.98
2019-05-18T06:36:10.832Z,9.40
2019-05-18T06:38:39.561Z,9.10
2019-05-18T06:41:08.354Z,11.95
2019-05-18T06:43:37.160Z,8.68
2019-05-18T06:46:06.022Z,9.15
2019-05-18T06:48:34.807Z,9.70
2019-05-18T06:51:07.169Z,9.28
2019-05-18T06:53:34.225Z,9.63
2019-05-18T06:56:03.779Z,9.80
2019-05-18T06:58:33.726Z,10.53
2019-05-18T07:01:02.558Z,9.70
2019-05-18T07:03:31.375Z,10.28
2019-05-18T07:06:00.266Z,9.25
2019-05-18T07:08:29.118Z,10.60
2019-05-18T07:10:57.929Z,9.88
2019-05-18T07:13:26.749Z,10.80
2019-05-18T07:15:55.591Z,11.53
2019-05-18T07:18:24.377Z,9.90
2019-05-18T07:20:53.150Z,9.58
2019-05-18T07:23:21.958Z,10.00
2019-05-18T07:25:50.877Z,10.38
2019-05-18T07:28:19.741Z,11.05
2019-05-18T07:30:48.601Z,10.68
2019-05-18T07:33:17.385Z,10.10
2019-05-18T07:35:46.271Z,10.45
2019-05-18T07:38:15.034Z,10.45
2019-05-18T07:40:43.802Z,11.25
2019-05-18T07:43:12.593Z,9.38
2019-05-18T07:45:41.370Z,9.68
2019-05-18T07:48:10.159Z,10.08
2019-05-18T07:50:39.035Z,11.35
2019-05-18T07:53:07.983Z,11.78
2019-05-18T07:55:36.866Z,9.78
2019-05-18T07:58:05.643Z,10.40
2019-05-18T08:00:34.795Z,10.23
2019-05-18T08:03:03.661Z,11.12
2019-05-18T08:05:32.595Z,10.00
2019-05-18T08:08:01.777Z,9.70
2019-05-18T08:10:38.002Z,10.40
2019-05-18T08:13:07.726Z,9.48
2019-05-18T08:15:37.098Z,9.20
2019-05-18T08:18:06.622Z,9.48
2019-05-18T08:20:35.565Z,8.85
2019-05-18T08:23:04.429Z,9.70
2019-05-18T08:25:33.330Z,8.48
2019-05-18T08:28:02.196Z,9.85
2019-05-18T08:30:31.144Z,9.25
2019-05-18T08:33:00.170Z,8.08
2019-05-18T08:35:29.107Z,9.38
2019-05-18T08:37:57.912Z,8.38
2019-05-18T08:40:26.777Z,7.70
2019-05-18T08:42:55.638Z,8.40
2019-05-18T08:45:24.596Z,8.88
2019-05-18T08:47:53.441Z,7.55
2019-05-18T08:50:22.294Z,9.20
2019-05-18T08:52:51.086Z,7.50
2019-05-18T08:55:19.958Z,7.78
2019-05-18T08:57:48.857Z,9.05
2019-05-18T09:00:17.902Z,9.20
2019-05-18T09:02:46.782Z,9.13
2019-05-18T09:05:16.828Z,7.63
2019-05-18T09:07:45.968Z,7.80
2019-05-18T09:10:16.151Z,7.58
2019-05-18T09:12:45.286Z,7.00
2019-05-18T09:15:14.418Z,8.13
2019-05-18T09:17:43.267Z,8.95
2019-05-18T09:20:12.156Z,7.65
2019-05-18T09:22:40.994Z,8.63
2019-05-18T09:25:10.339Z,7.70
2019-05-18T09:27:39.190Z,7.42
2019-05-18T09:30:09.199Z,8.13
2019-05-18T09:32:38.340Z,6.87
2019-05-18T09:35:07.518Z,8.50
2019-05-18T09:37:36.414Z,10.17
2019-05-18T09:40:05.994Z,8.67
2019-05-18T09:42:34.770Z,9.13
2019-05-18T09:45:03.860Z,7.92
2019-05-18T09:47:32.679Z,6.33
2019-05-18T09:50:01.463Z,8.43
2019-05-18T09:52:44.389Z,7.45
2019-05-18T09:55:00.987Z,6.40
2019-05-18T09:57:29.747Z,7.80
2019-05-18T09:59:58.610Z,8.48
2019-05-18T10:02:27.464Z,7.67
2019-05-18T10:04:56.264Z,9.50
2019-05-18T10:07:25.057Z,6.53
2019-05-18T10:09:54.286Z,7.37
2019-05-18T10:12:24.824Z,7.15
2019-05-18T10:14:53.818Z,7.58
2019-05-18T10:17:22.620Z,6.55
2019-05-18T10:19:51.387Z,8.50
2019-05-18T10:22:20.259Z,7.60
2019-05-18T10:24:49.131Z,7.72
2019-05-18T10:27:17.916Z,7.10
2019-05-18T10:29:46.874Z,6.58
2019-05-18T10:32:15.726Z,6.80
2019-05-18T10:34:44.481Z,7.42
2019-05-18T10:37:13.421Z,7.92
2019-05-18T10:39:42.200Z,8.23
2019-05-18T10:42:11.008Z,7.43
2019-05-18T10:44:40.070Z,7.15
2019-05-18T10:47:09.361Z,6.53
2019-05-18T10:49:38.206Z,7.03
2019-05-18T10:52:07.440Z,8.87
2019-05-18T10:54:36.396Z,6.92
2019-05-18T10:57:05.298Z,10.50
2019-05-18T10:59:34.117Z,12.27
2019-05-18T11:02:03.024Z,15.83
2019-05-18T11:04:32.118Z,5.87
2019-05-18T11:07:01.287Z,7.30
2019-05-18T11:09:30.177Z,6.53
2019-05-18T11:11:59.126Z,5.47
2019-05-18T11:14:28.012Z,6.45
2019-05-18T11:16:56.932Z,7.00
2019-05-18T11:19:25.848Z,5.92
2019-05-18T11:21:54.722Z,6.25
2019-05-18T11:24:23.647Z,5.20
2019-05-18T11:26:52.530Z,5.08
2019-05-18T11:29:23.485Z,5.22
2019-05-18T11:31:52.154Z,4.55
2019-05-18T11:34:20.994Z,5.08
2019-05-18T11:36:49.767Z,5.10
2019-05-18T11:39:18.618Z,5.30
2019-05-18T11:41:47.422Z,5.50
2019-05-18T11:44:16.224Z,5.53
2019-05-18T11:46:45.158Z,5.55
2019-05-18T11:49:13.925Z,4.83
2019-05-18T11:51:42.881Z,5.33
2019-05-18T11:54:11.687Z,4.85
2019-05-18T11:56:40.610Z,3.92
2019-05-18T11:59:09.389Z,5.60
2019-05-18T12:01:38.164Z,4.35
2019-05-18T12:04:07.150Z,4.97
2019-05-18T12:06:36.027Z,5.33
2019-05-18T12:09:06.729Z,4.20
2019-05-18T12:11:35.583Z,3.70
2019-05-18T12:14:04.536Z,4.90
2019-05-18T12:16:33.492Z,3.75
2019-05-18T12:19:02.385Z,4.12
2019-05-18T12:21:31.305Z,4.13
2019-05-18T12:24:14.292Z,3.60
2019-05-18T12:26:30.655Z,5.17
2019-05-18T12:28:59.463Z,4.97
2019-05-18T12:31:28.300Z,4.67
2019-05-18T12:33:57.300Z,4.03
2019-05-18T12:36:26.116Z,4.25
2019-05-18T12:38:54.894Z,4.37
2019-05-18T12:41:32.667Z,4.80
2019-05-18T12:44:01.462Z,4.60
2019-05-18T12:46:31.924Z,4.25
2019-05-18T12:49:02.660Z,5.30
2019-05-18T12:51:31.539Z,4.15
2019-05-18T12:54:00.328Z,5.53
2019-05-18T12:56:29.184Z,4.90
2019-05-18T12:58:57.983Z,5.42
2019-05-18T13:01:27.430Z,5.03
2019-05-18T13:03:56.314Z,4.12
2019-05-18T13:06:25.260Z,4.90
2019-05-18T13:08:54.225Z,5.05
2019-05-18T13:11:23.028Z,3.70
2019-05-18T13:13:51.926Z,3.45
2019-05-18T13:16:20.783Z,3.37
2019-05-18T13:18:49.639Z,4.15
2019-05-18T13:21:18.430Z,4.65
2019-05-18T13:23:47.244Z,3.20
2019-05-18T13:26:16.036Z,3.58
2019-05-18T13:28:44.814Z,4.00
2019-05-18T13:31:13.740Z,4.10
2019-05-18T13:33:42.598Z,3.60
2019-05-18T13:36:11.487Z,3.75
2019-05-18T13:38:40.281Z,2.45
2019-05-18T13:41:09.078Z,2.47
2019-05-18T13:43:37.879Z,3.55
2019-05-18T13:46:06.754Z,3.42
2019-05-18T13:48:35.630Z,3.95
2019-05-18T13:51:04.522Z,3.50
2019-05-18T13:53:33.334Z,2.83
2019-05-18T13:56:02.314Z,3.70
2019-05-18T13:58:31.214Z,2.70
2019-05-18T14:01:00.507Z,3.20
2019-05-18T14:03:29.310Z,3.63
2019-05-18T14:05:58.284Z,4.35
2019-05-18T14:08:27.101Z,2.73
2019-05-18T14:10:55.910Z,2.30
2019-05-18T14:13:24.815Z,3.93
2019-05-18T14:15:53.630Z,2.90
2019-05-18T14:18:22.455Z,2.50
2019-05-18T14:20:51.326Z,3.37
2019-05-18T14:23:20.514Z,3.25
2019-05-18T14:25:49.350Z,2.62
2019-05-18T14:28:18.216Z,3.00
2019-05-18T14:30:47.515Z,3.67
2019-05-18T14:33:16.300Z,4.22
2019-05-18T14:35:45.154Z,2.67
2019-05-18T14:38:14.093Z,3.95
2019-05-18T14:40:43.359Z,4.83
2019-05-18T14:43:12.291Z,3.70
2019-05-18T14:45:41.208Z,2.35
2019-05-18T14:48:10.108Z,3.70
2019-05-18T14:50:39.046Z,2.42
2019-05-18T14:53:07.904Z,3.12
2019-05-18T14:55:36.777Z,3.90
2019-05-18T14:58:05.856Z,3.42
2019-05-18T15:00:34.719Z,3.10
2019-05-18T15:03:03.651Z,3.20
2019-05-18T15:05:32.506Z,3.20
2019-05-18T15:08:01.375Z,3.02
2019-05-18T15:10:30.263Z,2.95
2019-05-18T15:12:59.130Z,4.30
2019-05-18T15:15:28.334Z,2.83
2019-05-18T15:17:57.230Z,4.30
2019-05-18T15:20:26.095Z,2.25
2019-05-18T15:22:54.893Z,3.17
2019-05-18T15:25:23.761Z,2.42
2019-05-18T15:27:52.590Z,4.20
2019-05-18T15:30:21.705Z,4.05
2019-05-18T15:32:50.613Z,2.80
2019-05-18T15:35:19.810Z,4.00
2019-05-18T15:37:48.584Z,3.67
2019-05-18T15:40:17.545Z,3.58
2019-05-18T15:42:46.419Z,4.30
2019-05-18T15:45:16.091Z,2.65
2019-05-18T15:47:45.042Z,3.67
2019-05-18T15:50:14.703Z,3.92
2019-05-18T15:52:43.575Z,2.92
2019-05-18T15:55:12.551Z,4.53
2019-05-18T15:57:41.335Z,3.55
2019-05-18T16:00:12.172Z,4.15
2019-05-18T16:02:41.030Z,3.42
2019-05-18T16:05:09.987Z,4.25
2019-05-18T16:07:38.887Z,4.25
2019-05-18T16:10:08.099Z,3.20
2019-05-18T16:12:37.112Z,2.30
2019-05-18T16:15:06.769Z,2.55
2019-05-18T16:17:39.501Z,2.33
2019-05-18T16:20:06.728Z,2.23
2019-05-18T16:22:35.599Z,2.08
2019-05-18T16:25:05.051Z,2.33
2019-05-18T16:27:33.944Z,2.72
2019-05-18T16:30:02.937Z,3.50
2019-05-18T16:32:32.011Z,2.20
2019-05-18T16:35:00.911Z,2.72
2019-05-18T16:37:29.775Z,1.98
2019-05-18T16:39:58.851Z,3.60
2019-05-18T16:42:27.683Z,3.33
2019-05-18T16:44:56.486Z,8.25
2019-05-18T16:47:25.356Z,5.17
2019-05-18T16:49:54.294Z,2.63
2019-05-18T16:52:23.082Z,2.53
2019-05-18T16:54:51.894Z,2.47
2019-05-18T16:57:20.794Z,2.27
2019-05-18T16:59:49.588Z,2.00
2019-05-18T17:02:31.280Z,4.28
2019-05-18T17:04:49.203Z,2.20
2019-05-18T17:07:18.186Z,3.20
2019-05-18T17:09:47.084Z,3.00
2019-05-18T17:12:15.955Z,2.33
2019-05-18T17:14:45.047Z,2.35
2019-05-18T17:17:13.934Z,2.47
2019-05-18T17:19:42.810Z,3.02
2019-05-18T17:22:11.735Z,2.17
2019-05-18T17:24:41.304Z,3.50
2019-05-18T17:27:10.181Z,2.50
2019-05-18T17:29:39.943Z,2.75
2019-05-18T17:32:09.627Z,2.37
2019-05-18T17:34:38.451Z,3.37
2019-05-18T17:37:07.326Z,4.08
2019-05-18T17:39:36.431Z,2.33
2019-05-18T17:42:05.568Z,2.95
2019-05-18T17:44:34.366Z,3.20
2019-05-18T17:47:03.211Z,3.52
2019-05-18T17:49:32.011Z,3.52
2019-05-18T17:52:00.827Z,3.27
2019-05-18T17:54:30.028Z,4.22
2019-05-18T17:57:07.975Z,5.20
2019-05-18T17:59:29.355Z,2.62
2019-05-18T18:01:58.310Z,3.25
2019-05-18T18:04:27.380Z,4.40
2019-05-18T18:06:56.163Z,4.35
2019-05-18T18:09:25.059Z,3.35
2019-05-18T18:11:53.884Z,3.65
2019-05-18T18:14:22.748Z,4.12
2019-05-18T18:16:51.567Z,3.70
2019-05-18T18:19:20.408Z,3.42
2019-05-18T18:21:49.355Z,3.67
2019-05-18T18:24:18.284Z,4.25
2019-05-18T18:26:47.083Z,3.58
2019-05-18T18:29:15.903Z,4.10
2019-05-18T18:31:45.409Z,3.98
2019-05-18T18:34:14.652Z,3.20
2019-05-18T18:36:43.535Z,4.28
2019-05-18T18:39:12.428Z,4.42
2019-05-18T18:41:41.231Z,4.58
2019-05-18T18:44:10.196Z,4.70
2019-05-18T18:46:39.073Z,4.28
2019-05-18T18:49:08.058Z,4.10
2019-05-18T18:51:36.831Z,3.00
2019-05-18T18:54:05.751Z,4.47
2019-05-18T18:56:34.939Z,3.05
2019-05-18T18:59:03.879Z,4.72
2019-05-18T19:01:32.682Z,3.70
2019-05-18T19:04:01.607Z,3.90
2019-05-18T19:06:30.456Z,3.92
2019-05-18T19:08:59.287Z,3.75
2019-05-18T19:11:28.191Z,3.95
2019-05-18T19:13:57.081Z,5.10
2019-05-18T19:16:25.933Z,3.83
2019-05-18T19:18:54.740Z,4.10
2019-05-18T19:21:23.854Z,4.10
2019-05-18T19:23:52.680Z,5.08
2019-05-18T19:26:21.745Z,3.77
2019-05-18T19:28:50.682Z,6.12
2019-05-18T19:31:19.642Z,4.42
2019-05-18T19:33:48.725Z,4.60
2019-05-18T19:36:17.609Z,3.75
2019-05-18T19:38:46.410Z,4.22
2019-05-18T19:41:15.222Z,5.42
2019-05-18T19:43:44.124Z,5.95
2019-05-18T19:46:12.920Z,5.03
2019-05-18T19:48:41.731Z,5.45
2019-05-18T19:51:10.533Z,6.12
2019-05-18T19:53:39.415Z,5.55
2019-05-18T19:56:08.228Z,5.40
2019-05-18T19:58:37.315Z,6.10
2019-05-18T20:01:06.262Z,6.65
2019-05-18T20:03:35.122Z,5.62
2019-05-18T20:06:04.906Z,8.60
2019-05-18T20:08:33.719Z,6.17
2019-05-18T20:11:02.521Z,6.67
2019-05-18T20:13:31.336Z,6.75
2019-05-18T20:16:00.427Z,6.72
2019-05-18T20:18:29.211Z,5.95
2019-05-18T20:20:58.109Z,7.22
2019-05-18T20:23:27.008Z,7.33
2019-05-18T20:25:55.834Z,6.58
2019-05-18T20:28:24.681Z,7.55
2019-05-18T20:30:53.494Z,7.45
2019-05-18T20:33:22.394Z,6.40
2019-05-18T20:35:51.487Z,9.15
2019-05-18T20:38:20.366Z,8.10
2019-05-18T20:40:49.179Z,7.37
2019-05-18T20:43:18.023Z,7.17
2019-05-18T20:45:46.835Z,8.40
2019-05-18T20:48:17.028Z,7.95
2019-05-18T20:50:46.020Z,8.30
2019-05-18T20:53:14.813Z,8.65
2019-05-18T20:55:43.619Z,8.70
2019-05-18T20:58:12.435Z,9.18
2019-05-18T21:00:41.487Z,8.45
2019-05-18T21:03:10.380Z,7.62
2019-05-18T21:05:39.181Z,9.08
2019-05-18T21:08:08.074Z,8.65
2019-05-18T21:10:38.350Z,10.18
2019-05-18T21:13:07.590Z,9.40
2019-05-18T21:15:36.420Z,9.18
2019-05-18T21:18:05.291Z,11.10
2019-05-18T21:20:34.111Z,9.93
2019-05-18T21:23:02.909Z,10.78
2019-05-18T21:25:32.055Z,11.33
2019-05-18T21:28:01.175Z,13.15
2019-05-18T21:30:30.046Z,10.50
2019-05-18T21:32:58.926Z,14.70
2019-05-18T21:35:27.735Z,11.70
2019-05-18T21:37:57.056Z,10.60
2019-05-18T21:40:26.424Z,11.43
2019-05-18T21:42:55.537Z,10.78
2019-05-18T21:45:24.310Z,11.73
2019-05-18T21:47:53.095Z,11.33
2019-05-18T21:50:21.966Z,11.28
2019-05-18T21:52:50.795Z,11.90
2019-05-18T21:55:19.574Z,10.78
2019-05-18T21:57:48.338Z,12.30
2019-05-18T22:00:17.575Z,11.28
2019-05-18T22:02:46.529Z,13.78
2019-05-18T22:05:15.475Z,11.70
2019-05-18T22:07:44.389Z,11.20
2019-05-18T22:10:25.358Z,11.80
2019-05-18T22:12:44.428Z,11.30
2019-05-18T22:15:14.266Z,9.60
2019-05-18T22:18:01.109Z,12.88
2019-05-18T22:20:29.987Z,10.30
2019-05-18T22:22:58.870Z,11.03
2019-05-18T22:25:27.834Z,9.70
2019-05-18T22:27:56.725Z,10.43
2019-05-18T22:30:25.675Z,11.12
2019-05-18T22:32:54.595Z,10.53
2019-05-18T22:35:24.438Z,9.68
2019-05-18T22:37:53.397Z,9.90
2019-05-18T22:40:22.270Z,9.10
2019-05-18T22:42:51.122Z,10.28
2019-05-18T22:45:19.970Z,9.67
2019-05-18T22:47:48.759Z,10.70
2019-05-18T22:50:19.149Z,10.58
2019-05-18T22:52:48.183Z,8.85
2019-05-18T22:55:17.114Z,9.73
2019-05-18T22:57:45.905Z,10.80
2019-05-18T23:00:15.216Z,10.00
2019-05-18T23:02:44.000Z,9.10
2019-05-18T23:05:12.900Z,10.93
2019-05-18T23:07:41.665Z,11.10
2019-05-18T23:10:11.703Z,10.17
2019-05-18T23:12:40.499Z,10.38
2019-05-18T23:15:10.017Z,10.23
2019-05-18T23:17:38.814Z,9.60
2019-05-18T23:20:08.159Z,9.68
2019-05-18T23:22:36.939Z,9.50
2019-05-18T23:25:06.668Z,9.73
2019-05-18T23:27:35.788Z,10.15
2019-05-18T23:30:05.191Z,10.35
2019-05-18T23:32:34.771Z,9.88
2019-05-18T23:35:03.713Z,10.82
2019-05-18T23:37:32.506Z,11.40
2019-05-18T23:40:01.355Z,10.80
2019-05-18T23:42:30.221Z,12.68
2019-05-18T23:44:59.319Z,11.00
2019-05-18T23:47:28.421Z,10.87
2019-05-18T23:49:57.189Z,11.05
2019-05-18T23:52:26.006Z,10.97
2019-05-18T23:54:54.806Z,11.45
2019-05-18T23:57:23.616Z,11.65
2019-05-18T23:59:52.746Z,12.15
